Time;durP1;ratioP1;P1;durP2;ratioP2;P2;SDS_P1;SDS_P2;PMS_P1;PMS_P2;Temp;Humidity;BMP_temperature;BMP_pressure;BME280_temperature;BME280_humidity;BME280_pressure;Samples;Min_cycle;Max_cycle;Signal;HPM_P1;HPM_P2
2023/08/31 00:03:00;;;;;;;17.67;10.30;;;;;;;;;;5109582;28;20196;-91
2023/08/31 00:06:07;;;;;;;17.33;10.70;;;;;;;;;;5097540;28;20206;-90
2023/08/31 00:09:12;;;;;;;20.80;10.68;;;;;;;;;;5095950;28;20189;-91
2023/08/31 00:12:18;;;;;;;19.58;11.00;;;;;;;;;;5096441;28;20574;-91
2023/08/31 00:15:23;;;;;;;19.13;10.48;;;;;;;;;;5097742;28;20169;-88
2023/08/31 00:18:29;;;;;;;20.55;11.02;;;;;;;;;;5097394;28;20186;-91
2023/08/31 00:21:34;;;;;;;14.77;10.45;;;;;;;;;;5097892;28;20189;-92
2023/08/31 00:24:39;;;;;;;15.75;10.10;;;;;;;;;;5097014;28;20189;-90
2023/08/31 00:27:48;;;;;;;14.13;9.77;;;;;;;;;;5097068;28;20588;-90
2023/08/31 00:30:53;;;;;;;13.77;9.75;;;;;;;;;;5096268;28;20173;-92
2023/08/31 00:34:00;;;;;;;14.35;9.35;;;;;;;;;;5107050;28;20513;-88
2023/08/31 00:37:06;;;;;;;16.00;9.23;;;;;;;;;;5096135;28;20202;-93
2023/08/31 00:40:14;;;;;;;13.68;9.45;;;;;;;;;;5094673;28;20186;-93
2023/08/31 00:43:20;;;;;;;13.90;9.82;;;;;;;;;;5094587;28;20186;-92
2023/08/31 00:46:27;;;;;;;16.13;10.63;;;;;;;;;;5095518;28;20178;-92
2023/08/31 00:49:35;;;;;;;14.07;9.80;;;;;;;;;;5093273;28;20186;-90
2023/08/31 00:52:40;;;;;;;15.63;10.45;;;;;;;;;;5094879;28;20254;-89
2023/08/31 00:55:46;;;;;;;15.00;9.65;;;;;;;;;;5093387;28;20222;-92
2023/08/31 00:58:54;;;;;;;12.07;9.15;;;;;;;;;;5093757;28;20194;-88
2023/08/31 01:02:03;;;;;;;16.45;9.23;;;;;;;;;;5094828;28;20186;-90
2023/08/31 01:05:13;;;;;;;17.98;9.57;;;;;;;;;;5092772;28;20209;-88
2023/08/31 01:08:23;;;;;;;14.63;9.27;;;;;;;;;;5094283;28;20165;-91
2023/08/31 01:11:33;;;;;;;15.48;10.30;;;;;;;;;;5092586;28;20663;-90
2023/08/31 01:14:44;;;;;;;17.33;9.68;;;;;;;;;;5094258;28;20244;-91
2023/08/31 01:17:50;;;;;;;17.17;9.82;;;;;;;;;;5094425;28;20206;-94
2023/08/31 01:21:00;;;;;;;16.27;9.82;;;;;;;;;;5092398;28;20243;-89
2023/08/31 01:24:07;;;;;;;16.83;10.68;;;;;;;;;;5094402;28;20313;-91
2023/08/31 01:27:13;;;;;;;17.73;10.65;;;;;;;;;;5093518;28;20687;-89
2023/08/31 01:30:18;;;;;;;19.17;10.82;;;;;;;;;;5092589;28;20542;-92
2023/08/31 01:33:23;;;;;;;17.02;10.95;;;;;;;;;;5091409;28;20218;-93
2023/08/31 01:36:29;;;;;;;13.90;10.00;;;;;;;;;;5090744;28;20698;-91
2023/08/31 01:39:38;;;;;;;14.90;10.05;;;;;;;;;;5093173;28;20201;-90
2023/08/31 01:42:44;;;;;;;11.70;9.02;;;;;;;;;;5091539;28;20687;-87
2023/08/31 01:45:50;;;;;;;14.48;10.23;;;;;;;;;;5092233;28;20273;-89
2023/08/31 01:48:54;;;;;;;13.40;9.40;;;;;;;;;;5091931;28;20668;-92
2023/08/31 01:51:59;;;;;;;16.08;9.52;;;;;;;;;;5092081;28;20213;-89
2023/08/31 01:55:06;;;;;;;18.67;10.80;;;;;;;;;;5092193;28;20572;-91
2023/08/31 01:58:12;;;;;;;16.75;10.80;;;;;;;;;;5090358;28;20742;-87
2023/08/31 02:01:17;;;;;;;15.35;10.15;;;;;;;;;;5089731;28;20253;-89
2023/08/31 02:04:24;;;;;;;20.30;11.40;;;;;;;;;;5090461;28;20252;-89
2023/08/31 02:07:29;;;;;;;15.75;10.20;;;;;;;;;;5090548;28;20301;-92
2023/08/31 02:10:35;;;;;;;15.38;9.60;;;;;;;;;;5089944;28;20194;-91
2023/08/31 02:13:41;;;;;;;14.88;9.80;;;;;;;;;;5090220;28;20386;-87
2023/08/31 02:16:46;;;;;;;16.85;9.75;;;;;;;;;;5090217;28;20253;-92
2023/08/31 02:19:50;;;;;;;19.27;10.18;;;;;;;;;;5090649;28;20687;-89
2023/08/31 02:22:55;;;;;;;19.42;9.80;;;;;;;;;;5092133;28;20217;-90
2023/08/31 02:26:02;;;;;;;15.15;8.90;;;;;;;;;;5090575;28;20197;-89
2023/08/31 02:29:07;;;;;;;16.35;10.57;;;;;;;;;;5105546;28;20254;-89
2023/08/31 02:32:12;;;;;;;21.98;10.23;;;;;;;;;;5091051;28;20193;-88
2023/08/31 02:35:18;;;;;;;20.70;9.90;;;;;;;;;;5092068;28;20220;-93
2023/08/31 02:38:23;;;;;;;18.83;10.05;;;;;;;;;;5090470;28;20558;-90
2023/08/31 02:41:29;;;;;;;17.83;10.32;;;;;;;;;;5089997;28;20184;-90
2023/08/31 02:44:35;;;;;;;20.02;10.57;;;;;;;;;;5089983;28;20174;-90
2023/08/31 02:47:40;;;;;;;17.33;10.05;;;;;;;;;;5090171;28;20263;-89
2023/08/31 02:50:46;;;;;;;19.42;10.15;;;;;;;;;;5090313;28;20209;-92
2023/08/31 02:53:53;;;;;;;14.23;10.07;;;;;;;;;;5088859;28;20224;-90
2023/08/31 02:57:00;;;;;;;22.17;10.57;;;;;;;;;;5090260;28;20182;-88
2023/08/31 03:00:10;;;;;;;16.75;10.18;;;;;;;;;;5088255;28;20185;-88
2023/08/31 03:03:15;;;;;;;16.15;9.73;;;;;;;;;;5088987;28;20629;-91
2023/08/31 03:06:20;;;;;;;25.27;10.60;;;;;;;;;;5090027;28;20262;-92
2023/08/31 03:09:25;;;;;;;15.88;9.52;;;;;;;;;;5088968;28;20190;-91
2023/08/31 03:12:31;;;;;;;16.00;8.60;;;;;;;;;;5089635;28;20205;-92
2023/08/31 03:15:36;;;;;;;13.65;7.38;;;;;;;;;;5089479;28;20271;-89
2023/08/31 03:18:41;;;;;;;10.10;6.85;;;;;;;;;;5089674;28;20202;-89
2023/08/31 03:21:46;;;;;;;12.73;6.45;;;;;;;;;;5090022;28;20259;-91
2023/08/31 03:24:53;;;;;;;9.40;6.47;;;;;;;;;;5089018;28;20305;-91
2023/08/31 03:28:02;;;;;;;9.93;7.22;;;;;;;;;;5090068;28;20190;-90
2023/08/31 03:31:07;;;;;;;9.90;6.22;;;;;;;;;;5088965;28;20216;-90
2023/08/31 03:34:12;;;;;;;9.75;6.28;;;;;;;;;;5090585;28;20251;-89
2023/08/31 03:37:19;;;;;;;11.00;6.40;;;;;;;;;;5091155;28;20680;-89
2023/08/31 03:40:24;;;;;;;12.30;6.55;;;;;;;;;;5092619;28;20221;-90
2023/08/31 03:43:31;;;;;;;12.40;7.03;;;;;;;;;;5095196;28;20190;-88
2023/08/31 03:46:36;;;;;;;11.40;6.85;;;;;;;;;;5093429;28;20259;-88
2023/08/31 03:49:42;;;;;;;12.80;8.32;;;;;;;;;;5092663;28;20213;-92
2023/08/31 03:52:47;;;;;;;24.08;8.77;;;;;;;;;;5092491;28;20178;-93
2023/08/31 03:55:53;;;;;;;12.65;8.40;;;;;;;;;;5092445;28;20263;-91
2023/08/31 03:59:00;;;;;;;13.55;6.68;;;;;;;;;;5092712;28;20275;-92
2023/08/31 04:02:05;;;;;;;14.32;7.38;;;;;;;;;;5092236;28;20239;-88
2023/08/31 04:05:10;;;;;;;11.40;6.90;;;;;;;;;;5093109;28;20213;-92
2023/08/31 04:08:15;;;;;;;12.50;7.63;;;;;;;;;;5092421;28;20257;-90
2023/08/31 04:11:20;;;;;;;13.55;8.05;;;;;;;;;;5092041;28;20200;-92
2023/08/31 04:14:27;;;;;;;12.98;8.18;;;;;;;;;;5092482;28;20687;-89
2023/08/31 04:17:32;;;;;;;13.93;8.23;;;;;;;;;;5092953;28;20569;-91
2023/08/31 04:20:37;;;;;;;13.23;7.25;;;;;;;;;;5092634;28;20205;-88
2023/08/31 04:23:43;;;;;;;8.45;5.55;;;;;;;;;;5104043;28;20201;-89
2023/08/31 04:26:51;;;;;;;7.47;4.95;;;;;;;;;;5094131;28;20229;-91
2023/08/31 04:29:58;;;;;;;7.32;5.03;;;;;;;;;;5095046;28;20198;-90
2023/08/31 04:33:04;;;;;;;14.57;5.53;;;;;;;;;;5094942;28;20190;-88
2023/08/31 04:36:14;;;;;;;9.88;5.72;;;;;;;;;;5093441;28;20233;-89
2023/08/31 04:39:19;;;;;;;9.27;6.22;;;;;;;;;;5093552;28;20190;-88
2023/08/31 04:42:25;;;;;;;11.77;5.70;;;;;;;;;;5093800;28;20189;-90
2023/08/31 04:45:31;;;;;;;6.35;4.53;;;;;;;;;;5093865;28;20182;-90
2023/08/31 04:48:41;;;;;;;6.78;4.20;;;;;;;;;;5107476;28;20224;-90
2023/08/31 04:51:48;;;;;;;9.55;4.85;;;;;;;;;;5093503;28;20186;-89
2023/08/31 04:54:53;;;;;;;8.48;5.00;;;;;;;;;;5093293;28;20241;-91
2023/08/31 04:57:57;;;;;;;9.60;5.38;;;;;;;;;;5094158;28;20266;-89
2023/08/31 05:01:04;;;;;;;10.10;5.47;;;;;;;;;;5094641;28;20206;-91
2023/08/31 05:04:09;;;;;;;8.30;6.30;;;;;;;;;;5095550;28;20194;-91
2023/08/31 05:07:14;;;;;;;7.97;6.05;;;;;;;;;;5091831;28;20549;-90
2023/08/31 05:10:20;;;;;;;12.35;5.65;;;;;;;;;;5092737;28;20194;-90
2023/08/31 05:13:25;;;;;;;8.18;6.00;;;;;;;;;;5091625;28;20209;-89
2023/08/31 05:16:31;;;;;;;7.03;5.65;;;;;;;;;;5091770;28;20207;-92
2023/08/31 05:19:36;;;;;;;9.88;5.82;;;;;;;;;;5093042;28;20562;-90
2023/08/31 05:22:41;;;;;;;6.25;4.40;;;;;;;;;;5092985;28;20316;-89
2023/08/31 05:25:46;;;;;;;7.65;4.40;;;;;;;;;;5092408;28;20656;-88
2023/08/31 05:28:51;;;;;;;6.53;4.85;;;;;;;;;;5093219;28;20203;-91
2023/08/31 05:31:58;;;;;;;5.90;4.20;;;;;;;;;;5094096;28;20735;-89
2023/08/31 05:35:03;;;;;;;7.38;4.28;;;;;;;;;;5096086;28;20213;-89
2023/08/31 05:38:12;;;;;;;9.52;5.15;;;;;;;;;;5097359;28;20204;-92
2023/08/31 05:41:17;;;;;;;8.55;4.40;;;;;;;;;;5093042;28;20217;-89
2023/08/31 05:44:23;;;;;;;10.50;4.95;;;;;;;;;;5093446;28;20660;-92
2023/08/31 05:47:31;;;;;;;6.25;4.55;;;;;;;;;;5093115;28;20220;-88
2023/08/31 05:50:37;;;;;;;8.43;4.68;;;;;;;;;;5093858;28;20283;-92
2023/08/31 05:53:42;;;;;;;7.88;4.43;;;;;;;;;;5093856;28;20209;-91
2023/08/31 05:56:47;;;;;;;8.55;4.78;;;;;;;;;;5091360;28;20181;-90
2023/08/31 05:59:52;;;;;;;13.27;5.78;;;;;;;;;;5091708;28;20241;-94
2023/08/31 06:02:59;;;;;;;6.28;4.07;;;;;;;;;;5102881;28;20209;-90
2023/08/31 06:06:04;;;;;;;8.88;3.67;;;;;;;;;;5090788;28;20182;-92
2023/08/31 06:09:10;;;;;;;10.05;3.50;;;;;;;;;;5090640;28;20202;-91
2023/08/31 06:12:16;;;;;;;5.82;3.75;;;;;;;;;;5090613;28;20204;-91
2023/08/31 06:15:21;;;;;;;7.85;3.40;;;;;;;;;;5091873;28;20602;-92
2023/08/31 06:18:28;;;;;;;4.32;3.08;;;;;;;;;;5090660;28;20182;-93
2023/08/31 06:21:33;;;;;;;7.57;3.25;;;;;;;;;;5091619;28;20192;-90
2023/08/31 06:24:38;;;;;;;9.35;2.90;;;;;;;;;;5090359;28;20196;-90
2023/08/31 06:27:44;;;;;;;4.75;2.85;;;;;;;;;;5091244;28;20222;-92
2023/08/31 06:30:49;;;;;;;6.75;2.67;;;;;;;;;;5094518;28;20186;-89
2023/08/31 06:33:56;;;;;;;5.32;3.00;;;;;;;;;;5092777;28;20202;-91
2023/08/31 06:37:05;;;;;;;3.53;2.45;;;;;;;;;;5094226;28;20656;-91
2023/08/31 06:40:11;;;;;;;4.85;2.97;;;;;;;;;;5093317;28;20316;-93
2023/08/31 06:43:16;;;;;;;5.47;2.40;;;;;;;;;;5089981;28;20717;-90
2023/08/31 06:46:22;;;;;;;3.38;2.53;;;;;;;;;;5089286;28;20244;-89
2023/08/31 06:49:30;;;;;;;3.30;2.30;;;;;;;;;;5092576;28;20190;-91
2023/08/31 06:52:36;;;;;;;2.97;2.25;;;;;;;;;;5089787;28;20190;-93
2023/08/31 06:55:41;;;;;;;3.95;2.38;;;;;;;;;;5092476;28;20218;-90
2023/08/31 06:58:46;;;;;;;4.65;2.40;;;;;;;;;;5092143;28;20186;-89
2023/08/31 07:01:52;;;;;;;2.58;2.08;;;;;;;;;;5090800;28;20182;-89
2023/08/31 07:04:59;;;;;;;2.55;2.00;;;;;;;;;;5093593;28;20202;-91
2023/08/31 07:08:05;;;;;;;3.28;2.05;;;;;;;;;;5091983;28;20185;-88
2023/08/31 07:11:10;;;;;;;2.90;2.00;;;;;;;;;;5092231;28;20189;-90
2023/08/31 07:14:16;;;;;;;3.55;2.00;;;;;;;;;;5092656;28;20648;-88
2023/08/31 07:17:21;;;;;;;4.95;2.20;;;;;;;;;;5095092;28;20209;-88
2023/08/31 07:20:27;;;;;;;3.92;2.10;;;;;;;;;;5095793;28;20228;-93
2023/08/31 07:23:32;;;;;;;5.18;2.10;;;;;;;;;;5096332;28;20185;-93
2023/08/31 07:26:37;;;;;;;3.63;2.30;;;;;;;;;;5096045;28;20182;-91
2023/08/31 07:29:43;;;;;;;2.38;1.73;;;;;;;;;;5106522;28;20193;-89
2023/08/31 07:32:48;;;;;;;2.75;2.00;;;;;;;;;;5097509;28;20189;-89
2023/08/31 07:35:55;;;;;;;4.55;2.38;;;;;;;;;;5107777;28;20221;-88
2023/08/31 07:39:00;;;;;;;5.60;2.17;;;;;;;;;;5096085;28;20379;-90
2023/08/31 07:42:07;;;;;;;4.28;2.10;;;;;;;;;;5094765;28;20309;-89
2023/08/31 07:45:12;;;;;;;3.33;2.15;;;;;;;;;;5095692;28;20555;-93
2023/08/31 07:48:17;;;;;;;2.95;2.15;;;;;;;;;;5095357;28;20205;-91
2023/08/31 07:51:25;;;;;;;4.45;1.95;;;;;;;;;;5096405;28;20186;-88
2023/08/31 07:54:31;;;;;;;6.90;2.83;;;;;;;;;;5094600;28;20209;-89
2023/08/31 07:57:36;;;;;;;8.05;1.85;;;;;;;;;;5093769;28;20255;-91
2023/08/31 08:00:41;;;;;;;6.00;2.40;;;;;;;;;;5102394;28;20265;-89
2023/08/31 08:03:47;;;;;;;3.20;1.90;;;;;;;;;;5095274;28;20202;-87
2023/08/31 08:06:58;;;;;;;8.40;2.40;;;;;;;;;;5094694;28;20197;-92
2023/08/31 08:10:07;;;;;;;7.88;3.00;;;;;;;;;;5095688;28;20198;-88
2023/08/31 08:13:13;;;;;;;6.90;2.47;;;;;;;;;;5097036;28;20272;-90
2023/08/31 08:16:18;;;;;;;6.93;2.17;;;;;;;;;;5098189;28;20240;-90
2023/08/31 08:19:25;;;;;;;4.82;2.13;;;;;;;;;;5094953;28;20210;-88
2023/08/31 08:22:32;;;;;;;3.72;2.20;;;;;;;;;;5091725;28;20243;-91
2023/08/31 08:25:37;;;;;;;4.30;2.35;;;;;;;;;;5093184;28;20217;-93
2023/08/31 08:28:44;;;;;;;5.80;2.28;;;;;;;;;;5094153;28;20247;-88
2023/08/31 08:31:49;;;;;;;5.90;2.17;;;;;;;;;;5093946;28;20755;-91
2023/08/31 08:34:54;;;;;;;3.72;1.92;;;;;;;;;;5092048;28;20221;-89
2023/08/31 08:38:01;;;;;;;5.95;2.60;;;;;;;;;;5090962;28;20258;-89
2023/08/31 08:41:06;;;;;;;5.85;1.92;;;;;;;;;;5094111;28;20173;-92
2023/08/31 08:44:11;;;;;;;5.75;2.20;;;;;;;;;;5092012;28;20559;-92
2023/08/31 08:47:18;;;;;;;5.32;2.17;;;;;;;;;;5091789;28;20197;-92
2023/08/31 08:50:23;;;;;;;3.80;2.08;;;;;;;;;;5093207;28;20265;-93
2023/08/31 08:53:30;;;;;;;4.55;2.08;;;;;;;;;;5092892;28;20197;-92
2023/08/31 08:56:35;;;;;;;6.20;2.08;;;;;;;;;;5092195;28;20217;-92
2023/08/31 08:59:40;;;;;;;10.55;2.17;;;;;;;;;;5093677;28;20223;-91
2023/08/31 09:02:49;;;;;;;8.35;2.20;;;;;;;;;;5094559;28;20328;-90
2023/08/31 09:05:58;;;;;;;5.80;1.90;;;;;;;;;;5083816;28;20240;-90
2023/08/31 09:09:04;;;;;;;7.30;2.55;;;;;;;;;;5093967;28;20190;-91
2023/08/31 09:12:10;;;;;;;5.28;2.15;;;;;;;;;;5093554;28;20270;-90
2023/08/31 09:15:15;;;;;;;5.65;2.10;;;;;;;;;;5105060;28;20664;-92
2023/08/31 09:18:25;;;;;;;6.80;2.17;;;;;;;;;;5093889;28;20235;-90
2023/08/31 09:21:37;;;;;;;8.23;2.10;;;;;;;;;;5096217;28;20201;-90
2023/08/31 09:24:44;;;;;;;13.52;2.10;;;;;;;;;;5093278;28;20197;-88
2023/08/31 09:27:50;;;;;;;4.95;2.20;;;;;;;;;;5093220;28;20200;-90
2023/08/31 09:31:03;;;;;;;5.35;1.90;;;;;;;;;;5093315;28;20189;-92
2023/08/31 09:34:08;;;;;;;4.25;1.90;;;;;;;;;;5094253;28;20221;-92
2023/08/31 09:37:18;;;;;;;6.15;2.30;;;;;;;;;;5099066;28;20208;-90
2023/08/31 09:40:26;;;;;;;4.30;2.00;;;;;;;;;;5095539;28;20272;-90
2023/08/31 09:43:31;;;;;;;8.88;2.08;;;;;;;;;;5098726;28;20228;-90
2023/08/31 09:46:36;;;;;;;3.92;2.15;;;;;;;;;;5096422;28;20209;-88
2023/08/31 09:49:44;;;;;;;7.07;1.90;;;;;;;;;;5096864;28;20204;-93
2023/08/31 09:52:50;;;;;;;6.53;2.28;;;;;;;;;;5095440;28;20209;-92
2023/08/31 09:56:00;;;;;;;4.63;2.10;;;;;;;;;;5095609;28;20209;-91
2023/08/31 09:59:05;;;;;;;5.80;1.67;;;;;;;;;;5096928;28;20187;-88
2023/08/31 10:02:11;;;;;;;4.97;2.15;;;;;;;;;;5094928;28;20194;-89
2023/08/31 10:05:17;;;;;;;4.63;1.80;;;;;;;;;;5097876;28;20660;-90
2023/08/31 10:08:24;;;;;;;5.18;1.88;;;;;;;;;;5096213;28;20267;-93
2023/08/31 10:11:31;;;;;;;5.97;1.85;;;;;;;;;;5094752;28;20278;-90
2023/08/31 10:14:37;;;;;;;5.20;2.08;;;;;;;;;;5095845;28;20194;-90
2023/08/31 10:17:44;;;;;;;5.30;1.75;;;;;;;;;;5095316;28;20789;-93
2023/08/31 10:20:49;;;;;;;4.75;1.88;;;;;;;;;;5093723;28;20185;-88
2023/08/31 10:23:54;;;;;;;4.18;1.63;;;;;;;;;;5091886;28;20279;-92
2023/08/31 10:27:18;;;;;;;3.97;1.85;;;;;;;;;;5093468;28;20193;-92
2023/08/31 10:30:28;;;;;;;3.88;1.67;;;;;;;;;;5094788;28;20185;-90
2023/08/31 10:33:33;;;;;;;6.38;2.20;;;;;;;;;;5093093;28;20186;-88
2023/08/31 10:36:44;;;;;;;3.85;2.00;;;;;;;;;;5095257;28;20220;-91
2023/08/31 10:39:49;;;;;;;6.68;2.35;;;;;;;;;;5093266;28;20556;-91
2023/08/31 10:43:16;;;;;;;4.30;1.88;;;;;;;;;;5092207;28;20675;-89
2023/08/31 10:46:27;;;;;;;6.85;1.85;;;;;;;;;;5093116;28;20662;-91
2023/08/31 10:49:32;;;;;;;5.03;1.88;;;;;;;;;;5092905;28;20548;-90
2023/08/31 10:52:44;;;;;;;8.18;2.00;;;;;;;;;;5094035;28;20201;-91
2023/08/31 10:55:53;;;;;;;3.97;1.90;;;;;;;;;;5093243;28;20197;-87
2023/08/31 10:59:02;;;;;;;4.45;1.85;;;;;;;;;;5095785;28;20184;-89
2023/08/31 11:02:08;;;;;;;5.70;2.00;;;;;;;;;;5094835;28;20213;-90
2023/08/31 11:05:14;;;;;;;8.07;1.92;;;;;;;;;;5095459;28;20722;-89
2023/08/31 11:08:23;;;;;;;3.85;1.90;;;;;;;;;;5094804;28;20240;-90
2023/08/31 11:11:29;;;;;;;5.75;2.00;;;;;;;;;;5094891;28;20197;-90
2023/08/31 11:14:35;;;;;;;9.63;2.25;;;;;;;;;;5095668;28;20221;-92
2023/08/31 11:17:41;;;;;;;6.22;2.45;;;;;;;;;;5093111;28;20217;-91
2023/08/31 11:20:46;;;;;;;12.45;2.70;;;;;;;;;;5092716;28;20194;-89
2023/08/31 11:23:57;;;;;;;9.40;2.00;;;;;;;;;;5093542;28;20213;-92
2023/08/31 11:27:03;;;;;;;5.78;2.00;;;;;;;;;;5094234;28;20222;-94
2023/08/31 11:30:14;;;;;;;9.80;2.10;;;;;;;;;;5095117;28;20205;-91
2023/08/31 11:33:20;;;;;;;6.82;2.25;;;;;;;;;;5094820;28;20236;-91
2023/08/31 11:36:28;;;;;;;6.28;1.92;;;;;;;;;;5094719;28;20217;-90
2023/08/31 11:39:34;;;;;;;5.85;2.20;;;;;;;;;;5096696;28;20236;-93
2023/08/31 11:42:39;;;;;;;5.57;1.77;;;;;;;;;;5095144;28;20730;-94
2023/08/31 11:45:46;;;;;;;4.82;2.08;;;;;;;;;;5095592;28;20269;-92
2023/08/31 11:48:51;;;;;;;4.90;1.80;;;;;;;;;;5094620;28;20185;-95
2023/08/31 11:51:57;;;;;;;5.88;2.10;;;;;;;;;;5094422;28;20200;-92
2023/08/31 11:55:03;;;;;;;18.00;2.65;;;;;;;;;;5097652;28;20174;-89
2023/08/31 11:58:09;;;;;;;10.85;2.13;;;;;;;;;;5095310;28;20217;-95
2023/08/31 12:01:26;;;;;;;7.50;1.98;;;;;;;;;;5097100;28;20263;-92
2023/08/31 12:04:32;;;;;;;6.95;2.58;;;;;;;;;;5109798;28;20213;-92
2023/08/31 12:07:41;;;;;;;13.90;2.58;;;;;;;;;;5099726;28;20185;-90
2023/08/31 12:10:48;;;;;;;8.57;3.13;;;;;;;;;;5097413;28;20193;-92
2023/08/31 12:13:53;;;;;;;4.88;1.92;;;;;;;;;;5109697;28;20259;-93
2023/08/31 12:17:04;;;;;;;6.15;1.98;;;;;;;;;;5099371;28;20209;-90
2023/08/31 12:20:13;;;;;;;4.68;2.10;;;;;;;;;;5097362;28;20201;-87
2023/08/31 12:23:21;;;;;;;7.82;1.83;;;;;;;;;;5100877;28;20181;-89
2023/08/31 12:26:27;;;;;;;5.35;2.10;;;;;;;;;;5095716;28;20262;-90
2023/08/31 12:29:33;;;;;;;7.60;1.92;;;;;;;;;;5097844;28;20193;-92
2023/08/31 12:32:39;;;;;;;5.13;1.98;;;;;;;;;;5109229;28;20189;-92
2023/08/31 12:35:45;;;;;;;3.72;1.65;;;;;;;;;;5098093;28;20189;-93
2023/08/31 12:38:50;;;;;;;5.90;1.98;;;;;;;;;;5099066;28;20238;-92
2023/08/31 12:41:58;;;;;;;4.90;2.17;;;;;;;;;;5098760;28;20180;-91
2023/08/31 12:45:05;;;;;;;6.85;2.00;;;;;;;;;;5096588;28;20180;-91
2023/08/31 12:48:12;;;;;;;8.50;2.00;;;;;;;;;;5095226;28;20326;-90
2023/08/31 12:51:17;;;;;;;6.53;2.25;;;;;;;;;;5097894;28;20236;-90
2023/08/31 12:54:23;;;;;;;12.45;3.20;;;;;;;;;;5095081;28;20197;-90
2023/08/31 12:57:28;;;;;;;10.82;2.03;;;;;;;;;;5094339;28;20285;-92
2023/08/31 13:00:33;;;;;;;8.02;2.35;;;;;;;;;;5095040;28;20203;-90
2023/08/31 13:03:40;;;;;;;8.13;2.22;;;;;;;;;;5095291;28;20182;-90
2023/08/31 13:06:45;;;;;;;3.92;1.83;;;;;;;;;;5094944;28;20189;-91
2023/08/31 13:09:50;;;;;;;6.10;1.98;;;;;;;;;;5094986;28;20197;-89
2023/08/31 13:12:56;;;;;;;5.63;1.83;;;;;;;;;;5096970;28;20182;-92
2023/08/31 13:16:02;;;;;;;9.02;2.20;;;;;;;;;;5097596;28;20309;-89
2023/08/31 13:19:09;;;;;;;5.82;1.80;;;;;;;;;;5098020;28;20185;-93
2023/08/31 13:22:16;;;;;;;5.97;1.92;;;;;;;;;;5096575;28;20194;-90
2023/08/31 13:25:23;;;;;;;5.82;2.03;;;;;;;;;;5097645;28;20295;-90
2023/08/31 13:28:29;;;;;;;8.98;2.65;;;;;;;;;;5097230;28;20197;-93
2023/08/31 13:31:35;;;;;;;4.82;2.35;;;;;;;;;;5109375;28;20189;-91
2023/08/31 13:34:42;;;;;;;2.45;1.75;;;;;;;;;;5094295;28;20256;-92
2023/08/31 13:37:47;;;;;;;7.00;1.92;;;;;;;;;;5096270;28;20398;-92
2023/08/31 13:40:58;;;;;;;6.40;2.00;;;;;;;;;;5093484;28;20551;-94
2023/08/31 13:44:06;;;;;;;8.00;2.30;;;;;;;;;;5094229;28;20185;-93
2023/08/31 13:47:11;;;;;;;5.57;2.33;;;;;;;;;;5095218;28;20579;-93
2023/08/31 13:50:18;;;;;;;7.10;2.10;;;;;;;;;;5095607;28;20196;-89
2023/08/31 13:53:24;;;;;;;5.13;1.75;;;;;;;;;;5095975;28;20205;-89
2023/08/31 13:56:31;;;;;;;4.78;1.88;;;;;;;;;;5096039;28;20201;-91
2023/08/31 13:59:37;;;;;;;10.40;2.20;;;;;;;;;;5093885;28;20213;-91
2023/08/31 14:02:45;;;;;;;46.60;7.60;;;;;;;;;;5097624;28;20343;-91
2023/08/31 14:05:51;;;;;;;13.45;2.85;;;;;;;;;;5094094;28;20209;-90
2023/08/31 14:08:56;;;;;;;5.10;2.13;;;;;;;;;;5094426;28;20170;-89
2023/08/31 14:12:01;;;;;;;5.00;2.30;;;;;;;;;;5093642;28;20655;-92
2023/08/31 14:15:07;;;;;;;7.57;2.08;;;;;;;;;;5094473;28;20319;-92
2023/08/31 14:18:13;;;;;;;8.23;2.10;;;;;;;;;;5093859;28;20224;-90
2023/08/31 14:21:29;;;;;;;4.40;2.15;;;;;;;;;;5104796;28;20186;-93
2023/08/31 14:24:35;;;;;;;5.72;2.70;;;;;;;;;;5093429;28;20238;-89
2023/08/31 14:27:40;;;;;;;5.45;1.65;;;;;;;;;;5095655;28;20174;-90
2023/08/31 14:30:45;;;;;;;8.40;2.33;;;;;;;;;;5096212;28;20697;-93
2023/08/31 14:33:52;;;;;;;5.35;2.08;;;;;;;;;;5097059;28;20232;-93
2023/08/31 14:37:02;;;;;;;3.90;1.77;;;;;;;;;;5095909;28;20197;-87
2023/08/31 14:40:08;;;;;;;6.50;1.90;;;;;;;;;;5098197;28;20212;-88
2023/08/31 14:43:16;;;;;;;6.30;1.95;;;;;;;;;;5097752;28;20327;-92
2023/08/31 14:46:22;;;;;;;6.20;2.70;;;;;;;;;;5096669;28;20233;-93
2023/08/31 14:49:28;;;;;;;4.55;1.90;;;;;;;;;;5095451;28;20189;-91
2023/08/31 14:52:35;;;;;;;7.10;1.52;;;;;;;;;;5095090;28;20189;-91
2023/08/31 14:55:41;;;;;;;4.78;1.85;;;;;;;;;;5097707;28;20197;-89
2023/08/31 14:58:47;;;;;;;3.38;1.48;;;;;;;;;;5096718;28;20221;-91
2023/08/31 15:01:53;;;;;;;6.32;1.95;;;;;;;;;;5097607;28;20178;-91
2023/08/31 15:05:06;;;;;;;6.63;1.85;;;;;;;;;;5096764;28;20178;-91
2023/08/31 15:08:14;;;;;;;6.57;2.05;;;;;;;;;;5095616;28;20177;-94
2023/08/31 15:11:19;;;;;;;4.43;1.90;;;;;;;;;;5095730;28;20185;-88
2023/08/31 15:14:24;;;;;;;4.78;2.17;;;;;;;;;;5096728;28;20198;-91
2023/08/31 15:17:29;;;;;;;6.07;2.10;;;;;;;;;;5095827;28;20197;-92
2023/08/31 15:20:37;;;;;;;10.73;2.17;;;;;;;;;;5098354;28;20174;-91
2023/08/31 15:23:44;;;;;;;11.07;3.67;;;;;;;;;;5096333;28;20225;-91
2023/08/31 15:26:51;;;;;;;9.38;2.20;;;;;;;;;;5098354;28;20272;-90
2023/08/31 15:29:56;;;;;;;7.30;2.22;;;;;;;;;;5097240;28;20189;-90
2023/08/31 15:33:03;;;;;;;4.35;1.80;;;;;;;;;;5096468;28;20269;-92
2023/08/31 15:36:13;;;;;;;8.07;2.50;;;;;;;;;;5097773;28;20205;-90
2023/08/31 15:39:22;;;;;;;12.30;2.70;;;;;;;;;;5100600;28;20237;-90
2023/08/31 15:42:30;;;;;;;5.43;2.30;;;;;;;;;;5102717;28;20209;-89
2023/08/31 15:48:56;;;;;;;6.55;1.92;;;;;;;;;;5100576;28;20252;-91
2023/08/31 15:52:03;;;;;;;6.95;2.08;;;;;;;;;;5101397;28;20186;-92
2023/08/31 15:55:10;;;;;;;5.88;2.20;;;;;;;;;;5099491;28;20675;-92
2023/08/31 15:58:16;;;;;;;6.50;1.92;;;;;;;;;;5099021;28;20288;-90
2023/08/31 16:01:21;;;;;;;8.43;1.90;;;;;;;;;;5097317;28;20257;-93
2023/08/31 16:04:26;;;;;;;5.93;1.80;;;;;;;;;;5097107;28;20182;-90
2023/08/31 16:07:46;;;;;;;4.10;2.10;;;;;;;;;;5099617;28;20683;-89
2023/08/31 16:10:53;;;;;;;6.93;2.42;;;;;;;;;;5096517;28;20205;-88
2023/08/31 16:13:59;;;;;;;5.60;2.72;;;;;;;;;;5095415;28;20314;-91
2023/08/31 16:17:04;;;;;;;4.53;1.83;;;;;;;;;;5095205;28;20206;-89
2023/08/31 16:20:10;;;;;;;4.80;2.25;;;;;;;;;;5094963;28;20225;-88
2023/08/31 16:23:15;;;;;;;5.10;2.13;;;;;;;;;;5095700;28;20193;-90
2023/08/31 16:26:22;;;;;;;5.55;2.13;;;;;;;;;;5094639;28;20264;-89
2023/08/31 16:29:27;;;;;;;6.35;2.03;;;;;;;;;;5095106;28;20216;-92
2023/08/31 16:32:34;;;;;;;5.70;1.90;;;;;;;;;;5096521;28;20235;-88
2023/08/31 16:35:48;;;;;;;7.82;2.88;;;;;;;;;;5096945;28;20190;-89
2023/08/31 16:38:54;;;;;;;6.20;2.35;;;;;;;;;;5095777;28;20220;-89
2023/08/31 16:42:00;;;;;;;4.80;2.40;;;;;;;;;;5094841;28;20227;-91
2023/08/31 16:45:06;;;;;;;6.30;2.10;;;;;;;;;;5095489;28;20185;-90
2023/08/31 16:48:12;;;;;;;10.65;2.20;;;;;;;;;;5095220;28;20181;-88
2023/08/31 16:51:18;;;;;;;8.07;2.10;;;;;;;;;;5095940;28;20584;-90
2023/08/31 16:54:23;;;;;;;12.57;2.47;;;;;;;;;;5094639;28;20687;-86
2023/08/31 16:57:30;;;;;;;4.75;1.85;;;;;;;;;;5095664;28;20606;-90
2023/08/31 17:00:37;;;;;;;5.85;2.30;;;;;;;;;;5094904;28;20201;-89
2023/08/31 17:03:42;;;;;;;11.02;2.20;;;;;;;;;;5094562;28;20270;-88
2023/08/31 17:06:47;;;;;;;10.88;2.63;;;;;;;;;;5096014;28;20194;-90
2023/08/31 17:09:54;;;;;;;7.10;2.13;;;;;;;;;;5095921;28;20194;-92
2023/08/31 17:13:00;;;;;;;6.60;2.25;;;;;;;;;;5094556;28;20193;-92
2023/08/31 17:16:10;;;;;;;4.93;2.10;;;;;;;;;;5092951;28;20229;-90
2023/08/31 17:19:15;;;;;;;4.75;2.30;;;;;;;;;;5092074;28;20383;-90
2023/08/31 17:22:21;;;;;;;5.93;2.05;;;;;;;;;;5095043;28;20201;-90
2023/08/31 17:25:25;;;;;;;6.10;2.50;;;;;;;;;;5094744;28;20192;-87
2023/08/31 17:28:32;;;;;;;14.88;2.80;;;;;;;;;;5094723;28;20261;-90
2023/08/31 17:31:37;;;;;;;5.32;2.10;;;;;;;;;;5096263;28;20190;-89
2023/08/31 17:34:43;;;;;;;9.88;2.30;;;;;;;;;;5092809;28;20275;-90
2023/08/31 17:37:47;;;;;;;5.20;1.90;;;;;;;;;;5093499;28;20186;-92
2023/08/31 17:40:53;;;;;;;10.40;2.20;;;;;;;;;;5093413;28;20217;-90
2023/08/31 17:44:00;;;;;;;6.00;2.20;;;;;;;;;;5092509;28;20194;-91
2023/08/31 17:47:05;;;;;;;7.70;2.10;;;;;;;;;;5090882;28;20569;-89
2023/08/31 17:50:11;;;;;;;6.45;2.30;;;;;;;;;;5092052;28;20197;-91
2023/08/31 17:53:17;;;;;;;12.70;3.22;;;;;;;;;;5093216;28;20394;-89
2023/08/31 17:56:22;;;;;;;8.02;2.40;;;;;;;;;;5092975;28;20278;-92
2023/08/31 17:59:30;;;;;;;6.88;2.00;;;;;;;;;;5092650;28;20234;-91
2023/08/31 18:02:36;;;;;;;8.63;2.63;;;;;;;;;;5092843;28;20334;-91
2023/08/31 18:05:49;;;;;;;6.90;2.30;;;;;;;;;;5094413;28;20244;-90
2023/08/31 18:08:54;;;;;;;8.60;2.38;;;;;;;;;;5094118;28;20283;-92
2023/08/31 18:12:00;;;;;;;9.77;3.00;;;;;;;;;;5094886;28;20205;-87
2023/08/31 18:15:08;;;;;;;7.95;2.38;;;;;;;;;;5095085;28;20217;-93
2023/08/31 18:18:13;;;;;;;8.25;3.00;;;;;;;;;;5093013;28;20278;-93
2023/08/31 18:21:19;;;;;;;5.68;2.38;;;;;;;;;;5095269;28;20208;-90
2023/08/31 18:24:24;;;;;;;8.15;2.25;;;;;;;;;;5096370;28;20210;-89
2023/08/31 18:27:30;;;;;;;11.40;5.57;;;;;;;;;;5094391;28;20221;-91
2023/08/31 18:30:36;;;;;;;7.10;2.88;;;;;;;;;;5095205;28;20186;-90
2023/08/31 18:33:42;;;;;;;8.98;2.63;;;;;;;;;;5095933;28;20324;-91
2023/08/31 18:36:47;;;;;;;7.45;2.42;;;;;;;;;;5095533;28;20331;-90